Time;durP1;ratioP1;P1;durP2;ratioP2;P2;SDS_P1;SDS_P2;PMS_P1;PMS_P2;Temp;Humidity;BMP_temperature;BMP_pressure;BME280_temperature;BME280_humidity;BME280_pressure;Samples;Min_cycle;Max_cycle;Signal;HPM_P1;HPM_P2
2023/09/07 00:01:33;;;;;;;7.43;3.37;;;;;;;26.47;39.75;100373.47;4482612;32;33610;-69
2023/09/07 00:04:03;;;;;;;6.28;3.40;;;;;;;26.47;39.61;100378.94;4483944;32;33594;-72
2023/09/07 00:06:31;;;;;;;5.40;3.35;;;;;;;26.45;39.51;100367.41;4457067;32;32983;-71
2023/09/07 00:08:58;;;;;;;5.85;3.25;;;;;;;26.45;39.42;100372.87;4483819;32;34649;-76
2023/09/07 00:11:26;;;;;;;6.37;3.45;;;;;;;26.43;39.39;100373.09;4483890;32;33847;-69
2023/09/07 00:13:54;;;;;;;5.07;3.30;;;;;;;26.42;39.45;100363.19;4482599;32;33970;-73
2023/09/07 00:16:21;;;;;;;6.15;4.05;;;;;;;26.43;39.39;100358.56;4469229;32;33863;-68
2023/09/07 00:18:49;;;;;;;6.18;3.40;;;;;;;26.43;39.32;100369.53;4482568;32;33968;-69
2023/09/07 00:21:16;;;;;;;8.35;3.40;;;;;;;26.43;39.18;100369.53;4483512;32;33773;-69
2023/09/07 00:23:44;;;;;;;6.65;3.67;;;;;;;26.41;39.11;100367.00;4483760;32;33105;-66
2023/09/07 00:26:12;;;;;;;5.25;3.40;;;;;;;26.40;39.03;100361.78;4482415;32;32890;-72
2023/09/07 00:28:40;;;;;;;8.15;3.37;;;;;;;26.39;38.92;100366.41;4482133;32;33124;-67
2023/09/07 00:31:07;;;;;;;6.75;3.45;;;;;;;26.38;38.91;100366.63;4482336;32;33945;-72
2023/09/07 00:33:35;;;;;;;5.35;3.47;;;;;;;26.35;38.80;100361.63;4483608;32;32833;-66
2023/09/07 00:36:03;;;;;;;6.68;3.95;;;;;;;26.36;38.77;100374.25;4483373;32;33907;-71
2023/09/07 00:38:30;;;;;;;5.55;3.60;;;;;;;26.36;38.70;100374.25;4482259;32;33999;-67
2023/09/07 00:40:59;;;;;;;6.05;3.33;;;;;;;26.34;38.66;100373.63;4483490;32;34248;-71
2023/09/07 00:43:26;;;;;;;6.32;3.25;;;;;;;26.34;38.62;100368.16;4483239;32;34284;-69
2023/09/07 00:45:54;;;;;;;5.85;3.50;;;;;;;26.32;38.55;100373.88;4483459;32;33878;-71
2023/09/07 00:48:22;;;;;;;5.32;3.20;;;;;;;26.32;38.54;100371.12;4482115;32;34017;-69
2023/09/07 00:50:50;;;;;;;5.03;3.08;;;;;;;26.31;38.53;100358.53;4468998;32;33723;-67
2023/09/07 00:53:17;;;;;;;5.57;3.45;;;;;;;26.30;38.40;100364.22;4482106;32;34352;-70
2023/09/07 00:55:45;;;;;;;6.28;3.78;;;;;;;26.29;38.45;100366.13;4482044;32;33401;-71
2023/09/07 00:58:13;;;;;;;5.57;3.33;;;;;;;26.29;38.37;100363.38;4481837;32;34153;-72
2023/09/07 01:00:41;;;;;;;4.97;3.12;;;;;;;26.27;38.32;100368.25;4483250;32;34316;-71
2023/09/07 01:03:09;;;;;;;5.60;3.10;;;;;;;26.27;38.31;100368.25;4483163;32;33200;-70
2023/09/07 01:06:02;;;;;;;6.87;3.40;;;;;;;26.27;38.32;100368.25;4482925;32;33927;-71
2023/09/07 01:08:39;;;;;;;6.87;3.47;;;;;;;26.26;38.29;100368.50;4482227;32;33922;-66
2023/09/07 01:11:17;;;;;;;5.12;3.35;;;;;;;26.26;38.25;100363.03;4481939;32;33849;-70
2023/09/07 01:13:45;;;;;;;5.55;3.35;;;;;;;26.25;38.25;100369.53;4481808;32;33554;-69
2023/09/07 01:16:12;;;;;;;6.80;3.37;;;;;;;26.23;38.17;100367.03;4483028;32;33500;-67
2023/09/07 01:18:40;;;;;;;6.90;3.15;;;;;;;26.21;38.03;100363.72;4482942;32;33775;-72
2023/09/07 01:21:09;;;;;;;7.57;3.17;;;;;;;26.22;38.03;100364.56;4469055;32;33614;-73
2023/09/07 01:23:37;;;;;;;5.72;3.50;;;;;;;26.21;38.02;100371.94;4482738;32;33169;-72
2023/09/07 01:26:06;;;;;;;5.25;3.30;;;;;;;26.19;38.00;100369.41;4443151;32;32727;-74
2023/09/07 01:28:34;;;;;;;6.35;3.33;;;;;;;26.19;37.98;100369.41;4468814;32;34013;-66
2023/09/07 01:31:02;;;;;;;5.95;3.33;;;;;;;26.20;37.95;100364.75;4483729;32;34798;-74
2023/09/07 01:33:30;;;;;;;5.62;3.42;;;;;;;26.19;37.99;100363.94;4483789;32;34435;-66
2023/09/07 01:35:58;;;;;;;6.20;3.53;;;;;;;26.18;37.99;100367.75;4483579;32;34335;-72
2023/09/07 01:38:25;;;;;;;5.57;3.37;;;;;;;26.16;37.99;100364.41;4484954;32;33520;-66
2023/09/07 01:40:53;;;;;;;4.95;3.28;;;;;;;26.16;37.96;100364.41;4484921;32;33512;-69
2023/09/07 01:43:20;;;;;;;6.25;3.53;;;;;;;26.16;37.90;100369.88;4483475;32;33503;-68
2023/09/07 01:45:48;;;;;;;8.25;3.53;;;;;;;26.15;37.88;100370.09;4485317;32;33875;-72
2023/09/07 01:48:16;;;;;;;5.62;3.55;;;;;;;26.15;37.86;100372.84;4470573;32;34860;-71
2023/09/07 01:50:43;;;;;;;7.00;3.58;;;;;;;26.15;37.81;100367.38;4470569;32;33765;-73
2023/09/07 01:53:11;;;;;;;6.25;3.70;;;;;;;26.14;37.77;100361.06;4483604;32;32043;-72
2023/09/07 01:55:39;;;;;;;5.35;3.20;;;;;;;26.13;37.82;100367.59;4483581;32;34359;-74
2023/09/07 01:58:07;;;;;;;6.25;3.65;;;;;;;26.13;37.79;100372.25;4483692;32;33807;-75
2023/09/07 02:00:38;;;;;;;5.93;3.33;;;;;;;26.11;37.78;100375.22;4483427;32;33944;-67
2023/09/07 02:03:07;;;;;;;5.45;3.20;;;;;;;26.10;37.80;100368.06;4483560;32;33418;-72
2023/09/07 02:05:34;;;;;;;5.53;3.30;;;;;;;26.10;37.83;100369.97;4470355;32;33833;-70
2023/09/07 02:08:02;;;;;;;5.97;3.37;;;;;;;26.10;37.81;100369.97;4483529;32;33185;-76
2023/09/07 02:10:30;;;;;;;6.72;3.55;;;;;;;26.10;37.75;100376.25;4483501;32;33951;-67
2023/09/07 02:12:58;;;;;;;6.75;3.30;;;;;;;26.08;37.69;100375.66;4483624;32;33765;-64
2023/09/07 02:15:25;;;;;;;5.90;3.72;;;;;;;26.08;37.63;100372.94;4470423;32;33078;-66
2023/09/07 02:17:53;;;;;;;6.10;3.55;;;;;;;26.08;37.57;100372.09;4483419;32;34651;-65
2023/09/07 02:20:21;;;;;;;5.25;3.08;;;;;;;26.06;37.54;100366.84;4484380;32;34706;-66
2023/09/07 02:22:49;;;;;;;5.20;3.20;;;;;;;26.06;37.55;100376.94;4484678;32;33623;-73
2023/09/07 02:25:17;;;;;;;5.87;3.70;;;;;;;26.05;37.58;100372.56;4483239;32;33956;-69
2023/09/07 02:27:45;;;;;;;6.20;3.58;;;;;;;26.04;37.53;100374.44;4483223;32;34087;-72
2023/09/07 02:30:12;;;;;;;6.90;3.20;;;;;;;26.04;37.52;100373.63;4483383;32;33820;-70
2023/09/07 02:32:42;;;;;;;8.68;3.72;;;;;;;26.04;37.50;100379.09;4484606;32;34427;-75
2023/09/07 02:35:10;;;;;;;;;;;;;;;26.02;37.50;100371.12;4470859;32;33744;-71
2023/09/07 02:37:37;;;;;;;5.15;3.10;;;;;;;26.12;37.33;100374.16;4484698;32;34084;-73
2023/09/07 02:40:08;;;;;;;6.00;3.67;;;;;;;26.04;37.42;100379.94;4469634;32;33979;-73
2023/09/07 02:42:36;;;;;;;;;;;;;;;26.01;37.50;100380.38;4470737;32;32344;-64
2023/09/07 02:45:04;;;;;;;5.07;3.50;;;;;;;26.09;37.34;100385.53;4470214;32;34048;-75
2023/09/07 02:47:32;;;;;;;6.10;4.00;;;;;;;26.01;37.49;100385.84;4482954;32;34750;-72
2023/09/07 02:50:00;;;;;;;5.40;3.60;;;;;;;26.00;37.45;100383.34;4470383;32;33388;-69
2023/09/07 02:52:28;;;;;;;5.87;3.00;;;;;;;25.98;37.45;100382.75;4470572;32;33440;-76
2023/09/07 02:54:56;;;;;;;7.18;3.70;;;;;;;25.98;37.37;100382.75;4470133;32;33855;-69
2023/09/07 02:57:24;;;;;;;5.65;3.42;;;;;;;25.98;37.42;100382.75;4470278;32;34028;-74
2023/09/07 02:59:52;;;;;;;6.32;3.37;;;;;;;25.97;37.41;100383.78;4483160;32;34575;-65
2023/09/07 03:02:20;;;;;;;5.40;3.37;;;;;;;25.95;37.39;100387.59;4457241;32;32606;-69
2023/09/07 03:04:52;;;;;;;6.07;3.75;;;;;;;25.95;37.33;100384.03;4483250;32;33739;-66
2023/09/07 03:07:20;;;;;;;6.20;3.20;;;;;;;25.95;37.34;100386.78;4483213;32;34090;-75
2023/09/07 03:09:48;;;;;;;7.65;3.67;;;;;;;25.95;37.27;100382.13;4470017;32;34125;-73
2023/09/07 03:12:16;;;;;;;6.65;3.25;;;;;;;25.94;37.30;100385.09;4483461;32;33368;-74
2023/09/07 03:14:44;;;;;;;7.70;3.53;;;;;;;25.93;37.30;100383.44;4484329;32;33754;-72
2023/09/07 03:17:12;;;;;;;5.80;3.45;;;;;;;25.92;37.34;100384.47;4482893;32;33927;-75
2023/09/07 03:19:40;;;;;;;5.37;3.30;;;;;;;25.93;37.34;100389.75;4469997;32;33655;-74
2023/09/07 03:22:08;;;;;;;7.93;3.25;;;;;;;25.91;37.33;100386.37;4457530;32;32752;-74
2023/09/07 03:24:36;;;;;;;6.57;3.28;;;;;;;25.91;37.31;100383.66;4482716;32;33699;-68
2023/09/07 03:27:05;;;;;;;6.32;3.08;;;;;;;25.91;37.30;100375.44;4484478;32;33790;-71
2023/09/07 03:29:35;;;;;;;5.43;3.33;;;;;;;25.90;37.27;100376.53;4467141;32;32846;-67
2023/09/07 03:32:03;;;;;;;6.10;3.42;;;;;;;25.91;37.30;100382.81;4467342;32;33360;-67
2023/09/07 03:34:31;;;;;;;6.97;4.00;;;;;;;25.92;37.24;100389.94;4480190;32;33664;-73
2023/09/07 03:37:00;;;;;;;6.62;3.55;;;;;;;25.89;37.26;100391.25;4466938;32;34009;-72
2023/09/07 03:39:28;;;;;;;5.65;3.33;;;;;;;25.89;37.23;100393.16;4468456;32;33946;-69
2023/09/07 03:41:56;;;;;;;5.47;3.55;;;;;;;25.88;37.22;100391.47;4467501;32;33929;-72
2023/09/07 03:44:23;;;;;;;5.70;3.60;;;;;;;25.89;37.30;100393.16;4466978;32;34749;-69
2023/09/07 03:46:52;;;;;;;4.40;2.90;;;;;;;25.87;37.28;100384.34;4468171;32;33405;-78
2023/09/07 03:49:20;;;;;;;6.80;3.53;;;;;;;25.87;37.35;100381.59;4454649;32;33728;-77
2023/09/07 03:51:48;;;;;;;6.50;3.15;;;;;;;25.87;37.22;100385.16;4466431;32;32803;-75
2023/09/07 03:54:16;;;;;;;6.15;3.55;;;;;;;25.87;37.20;100384.34;4454316;32;32654;-70
2023/09/07 03:56:43;;;;;;;7.03;3.87;;;;;;;25.86;37.22;100390.88;4468622;32;33658;-77
2023/09/07 03:59:11;;;;;;;7.35;3.78;;;;;;;25.85;37.20;100390.03;4453975;32;32798;-76
2023/09/07 04:01:38;;;;;;;5.60;3.50;;;;;;;25.85;37.17;100392.78;4467043;32;33570;-74
2023/09/07 04:04:06;;;;;;;6.32;3.70;;;;;;;25.84;37.13;100399.31;4468214;32;33899;-71
2023/09/07 04:06:34;;;;;;;6.82;3.40;;;;;;;25.85;37.08;100390.03;4467974;32;33560;-74
2023/09/07 04:09:02;;;;;;;8.05;4.00;;;;;;;25.83;37.06;100392.16;4483870;32;34479;-68
2023/09/07 04:11:29;;;;;;;8.52;4.10;;;;;;;25.83;37.13;100391.31;4482629;32;34072;-65
2023/09/07 04:13:57;;;;;;;5.20;3.37;;;;;;;25.82;37.17;100395.97;4483686;32;34814;-65
2023/09/07 04:16:24;;;;;;;7.47;3.72;;;;;;;25.83;37.15;100394.06;4483979;32;34415;-72
2023/09/07 04:18:52;;;;;;;6.18;4.00;;;;;;;25.81;37.04;100394.28;4483694;32;34030;-66
2023/09/07 04:21:21;;;;;;;7.70;3.75;;;;;;;25.80;37.06;100400.84;4483544;32;33079;-66
2023/09/07 04:23:49;;;;;;;6.05;3.50;;;;;;;25.80;37.00;100405.47;4482383;32;33193;-70
2023/09/07 04:26:16;;;;;;;5.95;3.78;;;;;;;25.80;37.01;100403.56;4483637;32;33907;-65
2023/09/07 04:28:44;;;;;;;6.57;3.42;;;;;;;25.78;36.95;100397.47;4483346;32;33453;-70
2023/09/07 04:31:12;;;;;;;6.80;4.07;;;;;;;25.78;36.91;100399.37;4483647;32;34262;-67
2023/09/07 04:33:40;;;;;;;6.25;3.72;;;;;;;25.77;36.87;100397.72;4482857;32;34046;-68
2023/09/07 04:36:11;;;;;;;6.45;3.47;;;;;;;25.77;36.89;100400.44;4483389;32;34349;-80
2023/09/07 04:38:39;;;;;;;7.70;4.18;;;;;;;25.75;36.88;100397.91;4483375;32;34593;-72
2023/09/07 04:41:11;;;;;;;7.25;3.55;;;;;;;25.75;36.86;100403.37;4469428;32;33004;-66
2023/09/07 04:43:42;;;;;;;7.75;4.00;;;;;;;25.75;36.94;100400.66;4482377;32;34636;-68
2023/09/07 04:46:11;;;;;;;5.70;3.45;;;;;;;25.74;37.03;100400.84;4482190;32;34537;-70
2023/09/07 04:48:41;;;;;;;6.37;4.10;;;;;;;25.74;37.18;100406.31;4482915;32;35465;-67
2023/09/07 04:51:09;;;;;;;9.48;4.03;;;;;;;25.74;37.19;100398.12;4483281;32;33400;-69
2023/09/07 04:53:38;;;;;;;9.80;3.50;;;;;;;25.74;37.13;100398.97;4478962;32;35182;-73
2023/09/07 04:56:06;;;;;;;10.50;4.10;;;;;;;25.74;37.23;100400.84;4475578;32;34480;-75
2023/09/07 04:58:34;;;;;;;6.93;3.78;;;;;;;25.74;37.38;100406.31;4477380;32;33932;-73
2023/09/07 05:01:03;;;;;;;9.60;3.85;;;;;;;25.73;37.39;100401.94;4482092;32;34262;-78
2023/09/07 05:03:31;;;;;;;9.10;4.20;;;;;;;25.72;37.36;100403.81;4483322;32;34077;-77
2023/09/07 05:05:59;;;;;;;11.48;4.10;;;;;;;25.73;37.36;100393.72;4485051;32;33787;-69
2023/09/07 05:08:27;;;;;;;6.65;4.03;;;;;;;25.72;37.37;100403.00;4484697;32;34833;-77
2023/09/07 05:10:59;;;;;;;8.07;3.60;;;;;;;25.71;37.37;100404.91;4484653;32;34251;-74
2023/09/07 05:13:31;;;;;;;6.85;4.22;;;;;;;25.73;37.38;100407.38;4481608;32;34812;-71
2023/09/07 05:16:00;;;;;;;9.07;4.45;;;;;;;25.72;37.44;100406.56;4484429;32;33618;-70
2023/09/07 05:18:28;;;;;;;9.70;4.00;;;;;;;25.74;37.42;100417.25;4484545;32;34570;-69
2023/09/07 05:20:58;;;;;;;8.70;4.03;;;;;;;25.73;37.43;100415.59;4476979;32;34445;-72
2023/09/07 05:23:27;;;;;;;7.75;4.18;;;;;;;25.70;37.44;100419.63;4484419;32;33782;-78
2023/09/07 05:25:59;;;;;;;8.43;4.28;;;;;;;25.71;37.46;100415.81;4484606;32;33626;-77
2023/09/07 05:28:31;;;;;;;7.85;3.90;;;;;;;25.70;37.57;100423.19;4474170;32;34512;-73
2023/09/07 05:31:00;;;;;;;6.55;3.42;;;;;;;25.71;37.53;100421.28;4484865;32;33457;-71
2023/09/07 05:33:27;;;;;;;8.50;4.12;;;;;;;25.71;37.61;100418.56;4485227;32;33855;-78
2023/09/07 05:35:55;;;;;;;7.05;3.90;;;;;;;25.70;37.57;100419.63;4484470;32;33830;-70
2023/09/07 05:38:23;;;;;;;6.57;3.78;;;;;;;25.72;37.57;100428.44;4484926;32;34304;-76
2023/09/07 05:40:53;;;;;;;6.40;3.95;;;;;;;25.72;37.56;100422.97;4485035;32;33709;-70
2023/09/07 05:43:22;;;;;;;8.05;3.67;;;;;;;25.71;37.62;100426.75;4458504;32;32588;-69
2023/09/07 05:45:50;;;;;;;8.55;3.97;;;;;;;25.70;37.68;100423.19;4485062;32;34737;-76
2023/09/07 05:48:18;;;;;;;8.50;4.22;;;;;;;25.76;37.62;100434.31;4484741;32;34809;-69
2023/09/07 05:50:46;;;;;;;8.27;3.97;;;;;;;25.80;37.59;100424.59;4484809;32;33398;-74
2023/09/07 05:53:14;;;;;;;7.50;4.12;;;;;;;25.79;37.68;100428.41;4484743;32;33784;-72
2023/09/07 05:55:42;;;;;;;7.25;4.32;;;;;;;25.76;37.71;100429.69;4484772;32;33893;-75
2023/09/07 05:58:09;;;;;;;6.00;3.10;;;;;;;25.76;37.85;100423.37;4484709;32;33601;-69
2023/09/07 06:00:39;;;;;;;6.85;3.80;;;;;;;25.74;37.83;100429.06;4484013;32;33085;-74
2023/09/07 06:03:08;;;;;;;7.32;3.83;;;;;;;25.74;37.88;100425.47;4484793;32;33519;-71
2023/09/07 06:05:36;;;;;;;7.10;3.55;;;;;;;25.74;37.89;100431.78;4483640;32;34086;-73
2023/09/07 06:08:06;;;;;;;8.15;3.47;;;;;;;25.74;37.94;100431.78;4484799;32;33733;-77
2023/09/07 06:10:34;;;;;;;8.38;4.10;;;;;;;25.74;37.92;100430.91;4484931;32;34169;-78
2023/09/07 06:13:02;;;;;;;6.28;3.60;;;;;;;25.74;37.97;100445.44;4484743;32;33736;-73
2023/09/07 06:15:31;;;;;;;6.93;3.60;;;;;;;25.74;38.00;100436.38;4484735;32;33796;-76
2023/09/07 06:17:59;;;;;;;6.40;3.62;;;;;;;25.74;37.99;100439.97;4484886;32;32946;-74
2023/09/07 06:20:27;;;;;;;7.97;3.78;;;;;;;25.74;37.92;100442.72;4484763;32;33562;-77
2023/09/07 06:22:55;;;;;;;7.15;3.67;;;;;;;25.74;38.04;100437.25;4484802;32;33471;-74
2023/09/07 06:25:23;;;;;;;8.07;3.92;;;;;;;25.74;37.99;100441.84;4484366;32;33180;-71
2023/09/07 06:27:51;;;;;;;5.62;3.47;;;;;;;25.74;38.07;100441.84;4484788;32;34696;-75
2023/09/07 06:30:19;;;;;;;6.00;3.70;;;;;;;25.75;38.06;100446.28;4484249;32;33558;-70
2023/09/07 06:32:48;;;;;;;5.78;3.60;;;;;;;25.74;38.10;100444.59;4484763;32;33772;-76
2023/09/07 06:35:18;;;;;;;7.13;3.87;;;;;;;25.74;38.10;100444.59;4484960;32;34636;-75
2023/09/07 06:37:45;;;;;;;6.95;3.70;;;;;;;25.75;38.14;100444.37;4484558;32;33471;-74
2023/09/07 06:40:15;;;;;;;6.68;3.42;;;;;;;25.76;38.18;100457.00;4484474;32;33494;-67
2023/09/07 06:42:44;;;;;;;6.85;3.83;;;;;;;25.76;38.26;100447.97;4484894;32;33471;-69
2023/09/07 06:45:13;;;;;;;6.68;3.97;;;;;;;25.75;38.32;100454.47;4483554;32;33912;-77
2023/09/07 06:47:41;;;;;;;8.60;3.85;;;;;;;25.75;38.27;100452.59;4482989;32;33894;-71
2023/09/07 06:50:09;;;;;;;8.15;3.58;;;;;;;25.74;38.29;100448.19;4484760;32;33551;-78
2023/09/07 06:52:38;;;;;;;8.13;3.87;;;;;;;25.74;38.36;100452.78;4484706;32;34102;-68
2023/09/07 06:55:06;;;;;;;9.60;4.00;;;;;;;25.75;38.33;100452.59;4484282;32;33778;-71
2023/09/07 06:57:34;;;;;;;8.00;3.83;;;;;;;25.75;38.30;100457.22;4483544;32;34646;-74
2023/09/07 07:00:05;;;;;;;6.93;3.90;;;;;;;25.75;38.32;100465.41;4484510;32;33174;-73
2023/09/07 07:02:34;;;;;;;5.68;3.80;;;;;;;25.73;38.34;100462.88;4484411;32;34268;-71
2023/09/07 07:05:02;;;;;;;7.32;4.12;;;;;;;25.75;38.40;100468.16;4484527;32;33651;-73
2023/09/07 07:07:30;;;;;;;9.70;4.03;;;;;;;25.74;38.47;100464.59;4484526;32;33934;-71
2023/09/07 07:09:58;;;;;;;7.30;3.72;;;;;;;25.74;38.57;100466.47;4483399;32;33300;-75
2023/09/07 07:12:26;;;;;;;7.12;3.92;;;;;;;25.75;38.55;100468.16;4483203;32;34038;-77
2023/09/07 07:14:55;;;;;;;7.95;3.60;;;;;;;25.74;38.60;100464.59;4484167;32;34068;-69
2023/09/07 07:17:23;;;;;;;9.80;4.12;;;;;;;25.75;38.61;100465.41;4484526;32;33822;-67
2023/09/07 07:19:50;;;;;;;8.52;4.20;;;;;;;25.75;38.59;100473.63;4484566;32;33278;-69
2023/09/07 07:22:18;;;;;;;8.05;4.00;;;;;;;25.74;38.65;100475.53;4484107;32;34934;-66
2023/09/07 07:24:49;;;;;;;6.03;3.87;;;;;;;25.75;38.73;100474.44;4484394;32;33382;-78
2023/09/07 07:27:17;;;;;;;7.15;3.90;;;;;;;25.75;38.74;100471.72;4483784;32;34260;-71
2023/09/07 07:29:45;;;;;;;6.50;3.95;;;;;;;25.76;38.79;100472.59;4484014;32;32578;-71
2023/09/07 07:32:13;;;;;;;9.32;3.92;;;;;;;25.76;38.79;100476.16;4484544;32;34173;-71
2023/09/07 07:34:41;;;;;;;6.45;3.70;;;;;;;25.77;38.81;100477.81;4482948;32;34002;-71
2023/09/07 07:37:09;;;;;;;5.68;3.12;;;;;;;25.77;38.90;100468.78;4484288;32;34646;-70
2023/09/07 07:39:37;;;;;;;8.70;3.65;;;;;;;25.77;38.90;100476.97;4484466;32;34011;-71
2023/09/07 07:42:06;;;;;;;7.95;4.00;;;;;;;25.78;38.89;100475.91;4483086;32;33783;-68
2023/09/07 07:44:33;;;;;;;8.88;4.60;;;;;;;25.77;38.86;100471.50;4483849;32;33495;-70
2023/09/07 07:47:01;;;;;;;8.32;3.87;;;;;;;25.77;38.84;100474.25;4484000;32;33625;-71
2023/09/07 07:49:31;;;;;;;13.70;4.45;;;;;;;25.77;38.87;100475.09;4482889;32;33228;-70
2023/09/07 07:52:00;;;;;;;7.90;4.30;;;;;;;25.80;38.86;100482.00;4484289;32;33745;-68
2023/09/07 07:54:29;;;;;;;9.57;4.28;;;;;;;25.79;38.88;100477.59;4482616;31;33826;-66
2023/09/07 07:56:57;;;;;;;7.55;4.60;;;;;;;25.79;38.89;100472.13;4479223;31;33951;-66
2023/09/07 07:59:24;;;;;;;9.00;4.37;;;;;;;25.81;38.90;100470.00;4483977;32;34159;-66
2023/09/07 08:01:52;;;;;;;7.03;3.85;;;;;;;25.80;38.93;100480.09;4484084;32;33890;-68
2023/09/07 08:04:21;;;;;;;9.35;4.40;;;;;;;25.81;38.95;100478.22;4483955;32;33713;-74
2023/09/07 08:06:48;;;;;;;7.40;4.15;;;;;;;25.81;39.01;100470.00;4483998;32;34234;-70
2023/09/07 08:09:16;;;;;;;10.65;5.07;;;;;;;25.81;39.14;100478.22;4483973;32;33878;-74
2023/09/07 08:11:45;;;;;;;8.48;4.20;;;;;;;25.82;39.14;100480.69;4483939;32;34809;-66
2023/09/07 08:14:12;;;;;;;7.22;4.18;;;;;;;25.83;39.17;100476.06;4482553;32;34778;-72
2023/09/07 08:16:40;;;;;;;7.57;4.50;;;;;;;25.84;39.18;100467.66;4483709;32;33931;-66
2023/09/07 08:19:08;;;;;;;8.32;4.43;;;;;;;25.85;39.21;100473.97;4482583;32;33081;-67
2023/09/07 08:21:37;;;;;;;9.88;4.62;;;;;;;25.85;39.25;100469.31;4483951;32;33986;-72
2023/09/07 08:24:05;;;;;;;10.85;4.70;;;;;;;25.85;39.31;100469.31;4483532;32;34037;-70
2023/09/07 08:26:33;;;;;;;7.80;4.40;;;;;;;25.86;39.37;100467.44;4482231;32;33901;-74
2023/09/07 08:29:05;;;;;;;9.48;4.30;;;;;;;25.86;39.37;100460.06;4478188;32;33873;-69
2023/09/07 08:31:33;;;;;;;11.65;4.68;;;;;;;25.87;39.38;100469.91;4467789;32;34944;-71
2023/09/07 08:34:03;;;;;;;10.18;4.90;;;;;;;25.89;39.42;100469.72;4466534;32;33978;-66
2023/09/07 08:36:34;;;;;;;8.70;4.75;;;;;;;25.89;39.46;100464.25;4467812;32;34558;-76
2023/09/07 08:39:05;;;;;;;9.73;4.90;;;;;;;25.91;39.44;100471.13;4466606;32;33365;-70
2023/09/07 08:41:41;;;;;;;12.70;5.22;;;;;;;25.91;39.43;100470.31;4467969;32;34080;-71
2023/09/07 08:44:28;;;;;;;8.57;4.18;;;;;;;25.91;39.49;100459.38;4467700;32;33949;-74
2023/09/07 08:46:56;;;;;;;7.05;4.25;;;;;;;25.93;39.50;100462.72;4466406;32;34155;-74
2023/09/07 08:49:23;;;;;;;8.13;4.62;;;;;;;25.92;39.51;100461.03;4454272;32;33728;-70
2023/09/07 08:51:53;;;;;;;11.10;4.87;;;;;;;25.93;39.51;100454.53;4467715;32;33865;-78
2023/09/07 08:54:21;;;;;;;7.40;4.37;;;;;;;25.95;39.48;100455.13;4453937;32;33765;-74
2023/09/07 08:56:49;;;;;;;8.48;4.55;;;;;;;25.95;39.50;100458.69;4440781;32;32808;-72
2023/09/07 08:59:17;;;;;;;9.15;4.70;;;;;;;25.96;39.58;100454.06;4453565;32;34457;-76
2023/09/07 09:01:44;;;;;;;7.75;4.50;;;;;;;25.97;39.60;100455.72;4453548;32;34834;-67
2023/09/07 09:04:14;;;;;;;10.35;4.65;;;;;;;25.98;39.52;100446.47;4467635;32;33998;-71
2023/09/07 09:06:42;;;;;;;7.53;4.60;;;;;;;25.99;39.48;100447.31;4466189;32;33752;-70
2023/09/07 09:09:13;;;;;;;9.77;4.62;;;;;;;26.00;39.57;100452.53;4467405;32;33670;-66
2023/09/07 09:11:41;;;;;;;8.93;4.05;;;;;;;26.01;39.51;100453.38;4467292;32;33977;-66
2023/09/07 09:14:08;;;;;;;8.20;4.75;;;;;;;26.00;39.35;100444.34;4466110;32;32849;-74
2023/09/07 09:16:36;;;;;;;8.00;4.25;;;;;;;26.01;39.35;100443.28;4467368;32;34324;-68
2023/09/07 09:19:04;;;;;;;9.98;4.50;;;;;;;26.01;39.38;100445.16;4467199;32;33391;-75
2023/09/07 09:21:31;;;;;;;7.65;4.12;;;;;;;26.02;39.56;100434.03;4467398;32;33846;-66
2023/09/07 09:24:00;;;;;;;10.25;4.80;;;;;;;26.03;39.57;100438.41;4467195;32;33944;-77
2023/09/07 09:26:27;;;;;;;9.05;4.37;;;;;;;26.05;39.56;100439.00;4467332;32;34545;-77
2023/09/07 09:28:57;;;;;;;;;;;;;;;26.06;39.49;100440.69;4471630;32;33529;-74
2023/09/07 09:31:24;;;;;;;8.15;4.30;;;;;;;26.15;39.26;100442.03;4483202;32;34618;-75
2023/09/07 09:33:53;;;;;;;7.60;4.18;;;;;;;26.10;39.24;100430.97;4482661;32;34779;-70
2023/09/07 09:36:21;;;;;;;7.07;4.35;;;;;;;26.10;38.87;100433.69;4482865;32;33562;-74
2023/09/07 09:38:49;;;;;;;7.35;3.92;;;;;;;26.10;38.92;100433.69;4482785;32;34147;-66
2023/09/07 09:41:17;;;;;;;11.75;4.75;;;;;;;26.11;38.98;100432.66;4481171;32;34026;-70
2023/09/07 09:43:51;;;;;;;7.93;4.12;;;;;;;26.12;39.03;100436.22;4482613;32;34067;-65
2023/09/07 09:46:19;;;;;;;9.43;5.07;;;;;;;26.11;39.08;100429.06;4481109;32;34864;-70
2023/09/07 09:48:47;;;;;;;7.35;4.35;;;;;;;26.15;38.89;100433.84;4482335;32;34376;-73
2023/09/07 09:51:14;;;;;;;9.07;4.18;;;;;;;26.19;38.35;100435.06;4483338;32;34741;-72
2023/09/07 09:53:42;;;;;;;9.18;4.72;;;;;;;26.18;38.43;100418.88;4483979;32;33483;-73
2023/09/07 09:56:10;;;;;;;7.45;3.90;;;;;;;26.22;38.30;100430.19;4484755;32;33700;-73
2023/09/07 09:58:38;;;;;;;6.95;4.05;;;;;;;26.20;38.26;100425.78;4485219;32;33461;-74
2023/09/07 10:01:07;;;;;;;8.90;4.35;;;;;;;26.22;38.44;100432.94;4470700;32;34671;-73
2023/09/07 10:03:45;;;;;;;7.12;4.10;;;;;;;26.24;38.38;100426.16;4483622;32;34773;-79
2023/09/07 10:06:18;;;;;;;11.70;4.57;;;;;;;26.26;38.45;100428.69;4471421;32;33993;-75
2023/09/07 10:08:53;;;;;;;6.78;4.00;;;;;;;26.29;38.20;100428.19;4484854;32;33033;-77
2023/09/07 10:11:34;;;;;;;8.88;4.20;;;;;;;26.30;37.72;100424.38;4484693;32;33687;-81
2023/09/07 10:14:05;;;;;;;8.88;4.15;;;;;;;26.34;37.28;100429.16;4483579;32;34018;-68
2023/09/07 10:16:49;;;;;;;6.57;4.03;;;;;;;26.32;37.29;100420.37;4483471;32;33979;-69
2023/09/07 10:19:18;;;;;;;7.20;4.00;;;;;;;26.37;37.05;100419.69;4483313;32;33135;-74
2023/09/07 10:21:46;;;;;;;8.07;4.35;;;;;;;26.34;36.60;100415.50;4483504;32;34865;-68
2023/09/07 10:24:29;;;;;;;7.18;4.30;;;;;;;26.36;36.98;100418.03;4484951;32;33546;-77
2023/09/07 10:27:01;;;;;;;8.02;4.47;;;;;;;26.40;36.53;100421.97;4483421;32;34039;-69
2023/09/07 10:29:28;;;;;;;6.35;3.80;;;;;;;26.40;36.26;100411.03;4483373;32;32257;-81
2023/09/07 10:31:56;;;;;;;7.18;4.20;;;;;;;26.42;36.33;100414.34;4483478;32;34133;-81
2023/09/07 10:34:35;;;;;;;7.70;4.07;;;;;;;26.41;36.16;100416.25;4483343;32;33974;-82
2023/09/07 10:37:03;;;;;;;6.47;3.93;;;;;;;26.45;36.38;100406.53;4470343;32;34942;-81
2023/09/07 10:39:31;;;;;;;7.18;3.97;;;;;;;26.45;36.31;100405.72;4483325;32;33233;-81
2023/09/07 10:41:59;;;;;;;6.70;4.15;;;;;;;26.43;36.13;100405.94;4483532;32;34206;-73
2023/09/07 10:44:27;;;;;;;9.80;4.20;;;;;;;26.45;36.13;100403.81;4483147;32;33646;-81
2023/09/07 10:46:56;;;;;;;6.78;3.80;;;;;;;26.46;35.94;100393.69;4484716;32;33659;-78
2023/09/07 10:49:24;;;;;;;7.57;4.25;;;;;;;26.48;35.65;100399.75;4470390;32;33464;-77
2023/09/07 10:51:52;;;;;;;9.57;4.10;;;;;;;26.47;35.80;100400.84;4457332;32;33851;-77
2023/09/07 10:54:23;;;;;;;8.93;4.40;;;;;;;26.47;35.68;100395.34;4483162;32;33956;-83
2023/09/07 10:56:51;;;;;;;7.22;4.07;;;;;;;26.50;35.53;100396.81;4484531;32;34426;-75
2023/09/07 10:59:18;;;;;;;7.20;4.35;;;;;;;26.53;35.46;100394.41;4469266;32;33050;-71
2023/09/07 11:01:47;;;;;;;8.55;4.37;;;;;;;26.55;35.40;100392.31;4483391;32;34099;-65
2023/09/07 11:04:17;;;;;;;9.73;3.83;;;;;;;26.50;35.75;100383.97;4483804;32;35009;-65
2023/09/07 11:06:45;;;;;;;12.73;4.80;;;;;;;26.50;35.79;100388.59;4483141;32;34085;-71
2023/09/07 11:09:16;;;;;;;7.72;4.12;;;;;;;26.53;35.54;100382.63;4484330;32;32997;-74
2023/09/07 11:11:46;;;;;;;14.05;4.62;;;;;;;26.51;35.59;100382.06;4482948;32;33601;-68
2023/09/07 11:14:14;;;;;;;6.00;3.80;;;;;;;26.50;35.80;100374.91;4483269;32;33638;-64
2023/09/07 11:16:43;;;;;;;6.95;4.28;;;;;;;26.50;35.88;100385.87;4483179;32;33468;-78
2023/09/07 11:19:10;;;;;;;7.77;4.00;;;;;;;26.48;35.92;100377.88;4484353;32;33484;-73
2023/09/07 11:21:38;;;;;;;8.25;4.20;;;;;;;26.51;35.92;100382.06;4484364;32;33953;-69
2023/09/07 11:24:06;;;;;;;6.22;3.85;;;;;;;26.49;35.84;100368.63;4470084;32;34929;-66
2023/09/07 11:26:42;;;;;;;7.57;4.15;;;;;;;26.51;35.71;100374.69;4484029;32;33829;-66
2023/09/07 11:29:13;;;;;;;7.47;4.57;;;;;;;26.52;35.64;100364.56;4484373;32;33287;-65
2023/09/07 11:31:40;;;;;;;8.32;4.20;;;;;;;26.51;35.58;100371.94;4484114;32;33846;-67